sensor_id;sensor_type;location;lat;lon;timestamp;P1;durP1;ratioP1;P2;durP2;ratioP2
18102;SDS011;9178;51.120;6.192;2023-03-01T00:01:36;9.17;;;6.50;;
18102;SDS011;9178;51.120;6.192;2023-03-01T00:04:03;8.60;;;5.67;;
18102;SDS011;9178;51.120;6.192;2023-03-01T00:06:31;8.93;;;6.20;;
18102;SDS011;9178;51.120;6.192;2023-03-01T00:08:58;11.60;;;6.67;;
18102;SDS011;9178;51.120;6.192;2023-03-01T00:11:26;10.97;;;6.60;;
18102;SDS011;9178;51.120;6.192;2023-03-01T00:13:55;9.40;;;6.17;;
18102;SDS011;9178;51.120;6.192;2023-03-01T00:16:24;10.30;;;5.80;;
18102;SDS011;9178;51.120;6.192;2023-03-01T00:18:53;10.47;;;6.33;;
18102;SDS011;9178;51.120;6.192;2023-03-01T00:21:20;9.30;;;6.20;;
18102;SDS011;9178;51.120;6.192;2023-03-01T00:23:49;9.80;;;6.13;;
18102;SDS011;9178;51.120;6.192;2023-03-01T00:26:16;11.30;;;6.43;;
18102;SDS011;9178;51.120;6.192;2023-03-01T00:28:44;9.57;;;6.27;;
18102;SDS011;9178;51.120;6.192;2023-03-01T00:31:12;9.17;;;6.27;;
18102;SDS011;9178;51.120;6.192;2023-03-01T00:33:41;9.30;;;6.00;;
18102;SDS011;9178;51.120;6.192;2023-03-01T00:36:08;9.27;;;6.20;;
18102;SDS011;9178;51.120;6.192;2023-03-01T00:38:36;10.03;;;6.30;;
18102;SDS011;9178;51.120;6.192;2023-03-01T00:41:06;11.53;;;7.00;;
18102;SDS011;9178;51.120;6.192;2023-03-01T00:43:34;21.70;;;10.63;;
18102;SDS011;9178;51.120;6.192;2023-03-01T00:46:03;13.53;;;7.33;;
18102;SDS011;9178;51.120;6.192;2023-03-01T00:48:30;8.63;;;6.47;;
18102;SDS011;9178;51.120;6.192;2023-03-01T00:51:03;10.20;;;7.00;;
18102;SDS011;9178;51.120;6.192;2023-03-01T00:53:30;9.67;;;6.47;;
18102;SDS011;9178;51.120;6.192;2023-03-01T00:55:58;12.00;;;6.63;;
18102;SDS011;9178;51.120;6.192;2023-03-01T00:58:26;14.33;;;6.63;;
18102;SDS011;9178;51.120;6.192;2023-03-01T01:00:53;10.67;;;6.47;;
18102;SDS011;9178;51.120;6.192;2023-03-01T01:03:21;12.83;;;7.13;;
18102;SDS011;9178;51.120;6.192;2023-03-01T01:05:49;9.97;;;6.57;;
18102;SDS011;9178;51.120;6.192;2023-03-01T01:08:16;11.47;;;6.37;;
18102;SDS011;9178;51.120;6.192;2023-03-01T01:10:43;10.07;;;6.57;;
18102;SDS011;9178;51.120;6.192;2023-03-01T01:13:11;10.70;;;7.17;;
18102;SDS011;9178;51.120;6.192;2023-03-01T01:15:39;11.53;;;7.10;;
18102;SDS011;9178;51.120;6.192;2023-03-01T01:18:06;10.50;;;6.77;;
18102;SDS011;9178;51.120;6.192;2023-03-01T01:20:34;9.97;;;7.00;;
18102;SDS011;9178;51.120;6.192;2023-03-01T01:23:15;12.20;;;7.60;;
18102;SDS011;9178;51.120;6.192;2023-03-01T01:25:42;10.47;;;7.23;;
18102;SDS011;9178;51.120;6.192;2023-03-01T01:28:09;10.77;;;7.30;;
18102;SDS011;9178;51.120;6.192;2023-03-01T01:30:36;8.90;;;6.33;;
18102;SDS011;9178;51.120;6.192;2023-03-01T01:33:06;10.80;;;6.90;;
18102;SDS011;9178;51.120;6.192;2023-03-01T01:35:33;12.03;;;7.43;;
18102;SDS011;9178;51.120;6.192;2023-03-01T01:38:00;14.07;;;7.37;;
18102;SDS011;9178;51.120;6.192;2023-03-01T01:40:27;12.90;;;7.10;;
18102;SDS011;9178;51.120;6.192;2023-03-01T01:42:54;11.83;;;7.20;;
18102;SDS011;9178;51.120;6.192;2023-03-01T01:45:31;11.23;;;6.70;;
18102;SDS011;9178;51.120;6.192;2023-03-01T01:48:00;11.20;;;7.13;;
18102;SDS011;9178;51.120;6.192;2023-03-01T01:50:32;11.47;;;7.00;;
18102;SDS011;9178;51.120;6.192;2023-03-01T01:53:05;10.93;;;7.40;;
18102;SDS011;9178;51.120;6.192;2023-03-01T01:55:35;12.63;;;6.93;;
18102;SDS011;9178;51.120;6.192;2023-03-01T01:58:04;11.47;;;7.67;;
18102;SDS011;9178;51.120;6.192;2023-03-01T02:00:32;10.43;;;6.90;;
18102;SDS011;9178;51.120;6.192;2023-03-01T02:03:00;10.77;;;7.23;;
18102;SDS011;9178;51.120;6.192;2023-03-01T02:05:33;13.03;;;7.00;;
18102;SDS011;9178;51.120;6.192;2023-03-01T02:08:08;13.07;;;6.80;;
18102;SDS011;9178;51.120;6.192;2023-03-01T02:10:37;9.77;;;6.90;;
18102;SDS011;9178;51.120;6.192;2023-03-01T02:13:04;11.40;;;7.27;;
18102;SDS011;9178;51.120;6.192;2023-03-01T02:15:32;13.10;;;7.40;;
18102;SDS011;9178;51.120;6.192;2023-03-01T02:18:01;12.83;;;7.60;;
18102;SDS011;9178;51.120;6.192;2023-03-01T02:20:32;11.23;;;7.47;;
18102;SDS011;9178;51.120;6.192;2023-03-01T02:23:07;12.90;;;7.57;;
18102;SDS011;9178;51.120;6.192;2023-03-01T02:25:37;13.17;;;7.47;;
18102;SDS011;9178;51.120;6.192;2023-03-01T02:28:18;17.07;;;7.70;;
18102;SDS011;9178;51.120;6.192;2023-03-01T02:30:59;11.20;;;7.03;;
18102;SDS011;9178;51.120;6.192;2023-03-01T02:33:47;11.50;;;7.83;;
18102;SDS011;9178;51.120;6.192;2023-03-01T02:36:15;11.63;;;8.43;;
18102;SDS011;9178;51.120;6.192;2023-03-01T02:38:44;13.37;;;8.90;;
18102;SDS011;9178;51.120;6.192;2023-03-01T02:41:11;15.63;;;7.97;;
18102;SDS011;9178;51.120;6.192;2023-03-01T02:43:44;11.00;;;7.23;;
18102;SDS011;9178;51.120;6.192;2023-03-01T02:46:13;12.07;;;7.67;;
18102;SDS011;9178;51.120;6.192;2023-03-01T02:48:43;14.63;;;7.90;;
18102;SDS011;9178;51.120;6.192;2023-03-01T02:54:10;14.87;;;8.13;;
18102;SDS011;9178;51.120;6.192;2023-03-01T02:56:43;11.20;;;8.47;;
18102;SDS011;9178;51.120;6.192;2023-03-01T02:59:14;11.33;;;8.10;;
18102;SDS011;9178;51.120;6.192;2023-03-01T03:01:42;13.07;;;8.20;;
18102;SDS011;9178;51.120;6.192;2023-03-01T03:04:10;12.97;;;8.40;;
18102;SDS011;9178;51.120;6.192;2023-03-01T03:06:41;13.30;;;7.90;;
18102;SDS011;9178;51.120;6.192;2023-03-01T03:09:09;14.93;;;8.40;;
18102;SDS011;9178;51.120;6.192;2023-03-01T03:11:35;11.93;;;7.83;;
18102;SDS011;9178;51.120;6.192;2023-03-01T03:14:04;18.10;;;8.80;;
18102;SDS011;9178;51.120;6.192;2023-03-01T03:16:35;13.60;;;8.30;;
18102;SDS011;9178;51.120;6.192;2023-03-01T03:19:02;12.53;;;8.07;;
18102;SDS011;9178;51.120;6.192;2023-03-01T03:21:31;14.73;;;8.50;;
18102;SDS011;9178;51.120;6.192;2023-03-01T03:23:58;17.17;;;8.57;;
18102;SDS011;9178;51.120;6.192;2023-03-01T03:26:25;13.03;;;8.03;;
18102;SDS011;9178;51.120;6.192;2023-03-01T03:28:52;12.67;;;8.17;;
18102;SDS011;9178;51.120;6.192;2023-03-01T03:31:18;14.77;;;8.63;;
18102;SDS011;9178;51.120;6.192;2023-03-01T03:33:47;13.03;;;8.27;;
18102;SDS011;9178;51.120;6.192;2023-03-01T03:36:15;14.70;;;8.40;;
18102;SDS011;9178;51.120;6.192;2023-03-01T03:38:43;14.53;;;8.30;;
18102;SDS011;9178;51.120;6.192;2023-03-01T03:41:10;13.97;;;8.47;;
18102;SDS011;9178;51.120;6.192;2023-03-01T03:43:37;14.27;;;8.70;;
18102;SDS011;9178;51.120;6.192;2023-03-01T03:46:06;14.53;;;9.37;;
18102;SDS011;9178;51.120;6.192;2023-03-01T03:48:33;13.53;;;9.00;;
18102;SDS011;9178;51.120;6.192;2023-03-01T03:51:02;13.50;;;8.97;;
18102;SDS011;9178;51.120;6.192;2023-03-01T03:53:30;13.43;;;8.97;;
18102;SDS011;9178;51.120;6.192;2023-03-01T03:55:57;16.17;;;8.37;;
18102;SDS011;9178;51.120;6.192;2023-03-01T03:58:25;13.43;;;8.63;;
18102;SDS011;9178;51.120;6.192;2023-03-01T04:00:53;15.60;;;8.33;;
18102;SDS011;9178;51.120;6.192;2023-03-01T04:03:22;15.20;;;8.70;;
18102;SDS011;9178;51.120;6.192;2023-03-01T04:05:50;14.23;;;8.47;;
18102;SDS011;9178;51.120;6.192;2023-03-01T04:08:19;13.33;;;9.07;;
18102;SDS011;9178;51.120;6.192;2023-03-01T04:10:47;13.73;;;8.53;;
18102;SDS011;9178;51.120;6.192;2023-03-01T04:13:16;15.00;;;9.23;;
18102;SDS011;9178;51.120;6.192;2023-03-01T04:15:44;13.60;;;8.23;;
18102;SDS011;9178;51.120;6.192;2023-03-01T04:18:12;12.63;;;8.83;;
18102;SDS011;9178;51.120;6.192;2023-03-01T04:20:40;15.10;;;9.50;;
18102;SDS011;9178;51.120;6.192;2023-03-01T04:23:08;14.57;;;10.33;;
18102;SDS011;9178;51.120;6.192;2023-03-01T04:25:40;15.90;;;11.20;;
18102;SDS011;9178;51.120;6.192;2023-03-01T04:28:08;18.60;;;10.60;;
18102;SDS011;9178;51.120;6.192;2023-03-01T04:30:36;14.47;;;9.93;;
18102;SDS011;9178;51.120;6.192;2023-03-01T04:33:03;17.63;;;10.67;;
18102;SDS011;9178;51.120;6.192;2023-03-01T04:35:31;14.57;;;9.60;;
18102;SDS011;9178;51.120;6.192;2023-03-01T04:37:58;22.83;;;12.67;;
18102;SDS011;9178;51.120;6.192;2023-03-01T04:40:28;22.53;;;13.23;;
18102;SDS011;9178;51.120;6.192;2023-03-01T04:42:56;21.10;;;13.13;;
18102;SDS011;9178;51.120;6.192;2023-03-01T04:45:23;16.93;;;10.80;;
18102;SDS011;9178;51.120;6.192;2023-03-01T04:47:50;16.00;;;10.40;;
18102;SDS011;9178;51.120;6.192;2023-03-01T04:50:17;18.93;;;9.33;;
18102;SDS011;9178;51.120;6.192;2023-03-01T04:52:47;14.27;;;8.83;;
18102;SDS011;9178;51.120;6.192;2023-03-01T04:55:14;16.23;;;10.37;;
18102;SDS011;9178;51.120;6.192;2023-03-01T04:57:42;17.20;;;8.90;;
18102;SDS011;9178;51.120;6.192;2023-03-01T05:00:12;13.83;;;9.60;;
18102;SDS011;9178;51.120;6.192;2023-03-01T05:02:49;14.57;;;9.60;;
18102;SDS011;9178;51.120;6.192;2023-03-01T05:05:22;14.87;;;9.37;;
18102;SDS011;9178;51.120;6.192;2023-03-01T05:07:54;15.60;;;9.17;;
18102;SDS011;9178;51.120;6.192;2023-03-01T05:10:22;15.83;;;9.80;;
18102;SDS011;9178;51.120;6.192;2023-03-01T05:12:49;19.07;;;9.50;;
18102;SDS011;9178;51.120;6.192;2023-03-01T05:15:18;14.80;;;9.27;;
18102;SDS011;9178;51.120;6.192;2023-03-01T05:17:46;15.03;;;9.43;;
18102;SDS011;9178;51.120;6.192;2023-03-01T05:20:13;18.27;;;10.47;;
18102;SDS011;9178;51.120;6.192;2023-03-01T05:22:40;14.80;;;9.13;;
18102;SDS011;9178;51.120;6.192;2023-03-01T05:25:07;14.67;;;9.53;;
18102;SDS011;9178;51.120;6.192;2023-03-01T05:27:34;17.10;;;9.93;;
18102;SDS011;9178;51.120;6.192;2023-03-01T05:30:01;17.60;;;10.73;;
18102;SDS011;9178;51.120;6.192;2023-03-01T05:32:39;18.87;;;10.30;;
18102;SDS011;9178;51.120;6.192;2023-03-01T05:35:08;16.07;;;10.20;;
18102;SDS011;9178;51.120;6.192;2023-03-01T05:37:38;17.93;;;9.77;;
18102;SDS011;9178;51.120;6.192;2023-03-01T05:40:05;19.00;;;11.00;;
18102;SDS011;9178;51.120;6.192;2023-03-01T05:42:40;25.93;;;14.40;;
18102;SDS011;9178;51.120;6.192;2023-03-01T05:45:08;26.47;;;13.70;;
18102;SDS011;9178;51.120;6.192;2023-03-01T05:47:35;19.83;;;11.87;;
18102;SDS011;9178;51.120;6.192;2023-03-01T05:50:04;18.33;;;11.50;;
18102;SDS011;9178;51.120;6.192;2023-03-01T05:52:32;17.93;;;10.60;;
18102;SDS011;9178;51.120;6.192;2023-03-01T05:54:59;14.00;;;9.23;;
18102;SDS011;9178;51.120;6.192;2023-03-01T05:57:27;17.37;;;9.70;;
18102;SDS011;9178;51.120;6.192;2023-03-01T05:59:55;15.70;;;9.13;;
18102;SDS011;9178;51.120;6.192;2023-03-01T06:02:21;15.53;;;9.53;;
18102;SDS011;9178;51.120;6.192;2023-03-01T06:04:48;14.37;;;9.47;;
18102;SDS011;9178;51.120;6.192;2023-03-01T06:07:17;15.13;;;9.53;;
18102;SDS011;9178;51.120;6.192;2023-03-01T06:09:43;17.17;;;10.33;;
18102;SDS011;9178;51.120;6.192;2023-03-01T06:12:10;15.70;;;10.00;;
18102;SDS011;9178;51.120;6.192;2023-03-01T06:14:37;16.87;;;10.17;;
18102;SDS011;9178;51.120;6.192;2023-03-01T06:17:04;17.03;;;10.47;;
18102;SDS011;9178;51.120;6.192;2023-03-01T06:19:30;17.17;;;10.47;;
18102;SDS011;9178;51.120;6.192;2023-03-01T06:21:57;15.03;;;9.53;;
18102;SDS011;9178;51.120;6.192;2023-03-01T06:24:25;16.27;;;9.80;;
18102;SDS011;9178;51.120;6.192;2023-03-01T06:26:53;15.83;;;10.23;;
18102;SDS011;9178;51.120;6.192;2023-03-01T06:29:20;17.50;;;9.80;;
18102;SDS011;9178;51.120;6.192;2023-03-01T06:31:47;17.17;;;9.73;;
18102;SDS011;9178;51.120;6.192;2023-03-01T06:34:14;16.70;;;10.57;;
18102;SDS011;9178;51.120;6.192;2023-03-01T06:36:41;16.80;;;10.43;;
18102;SDS011;9178;51.120;6.192;2023-03-01T06:39:08;16.67;;;9.93;;
18102;SDS011;9178;51.120;6.192;2023-03-01T06:41:36;15.13;;;9.50;;
18102;SDS011;9178;51.120;6.192;2023-03-01T06:44:03;16.43;;;10.03;;
18102;SDS011;9178;51.120;6.192;2023-03-01T06:46:30;17.10;;;10.00;;
18102;SDS011;9178;51.120;6.192;2023-03-01T06:48:57;14.13;;;9.57;;
18102;SDS011;9178;51.120;6.192;2023-03-01T06:51:23;15.30;;;9.53;;
18102;SDS011;9178;51.120;6.192;2023-03-01T06:53:50;14.67;;;8.83;;
18102;SDS011;9178;51.120;6.192;2023-03-01T06:56:17;15.53;;;9.73;;
18102;SDS011;9178;51.120;6.192;2023-03-01T06:58:45;17.17;;;9.20;;
18102;SDS011;9178;51.120;6.192;2023-03-01T07:01:12;14.03;;;9.40;;
18102;SDS011;9178;51.120;6.192;2023-03-01T07:03:39;14.43;;;10.13;;
18102;SDS011;9178;51.120;6.192;2023-03-01T07:06:05;19.10;;;9.77;;
18102;SDS011;9178;51.120;6.192;2023-03-01T07:08:32;14.17;;;9.33;;
18102;SDS011;9178;51.120;6.192;2023-03-01T07:10:59;17.10;;;8.90;;
18102;SDS011;9178;51.120;6.192;2023-03-01T07:13:27;16.83;;;9.70;;
18102;SDS011;9178;51.120;6.192;2023-03-01T07:15:55;13.00;;;9.03;;
18102;SDS011;9178;51.120;6.192;2023-03-01T07:18:22;16.97;;;9.37;;
18102;SDS011;9178;51.120;6.192;2023-03-01T07:20:49;18.07;;;9.67;;
18102;SDS011;9178;51.120;6.192;2023-03-01T07:23:16;15.67;;;9.03;;
18102;SDS011;9178;51.120;6.192;2023-03-01T07:25:43;15.97;;;9.07;;
18102;SDS011;9178;51.120;6.192;2023-03-01T07:28:10;15.30;;;8.80;;
18102;SDS011;9178;51.120;6.192;2023-03-01T07:30:37;12.43;;;8.67;;
18102;SDS011;9178;51.120;6.192;2023-03-01T07:33:06;11.27;;;8.20;;
18102;SDS011;9178;51.120;6.192;2023-03-01T07:35:33;13.07;;;8.57;;
18102;SDS011;9178;51.120;6.192;2023-03-01T07:38:00;15.33;;;8.57;;
18102;SDS011;9178;51.120;6.192;2023-03-01T07:40:27;12.43;;;8.00;;
18102;SDS011;9178;51.120;6.192;2023-03-01T07:42:55;12.80;;;8.33;;
18102;SDS011;9178;51.120;6.192;2023-03-01T07:45:22;10.63;;;7.50;;
18102;SDS011;9178;51.120;6.192;2023-03-01T07:47:50;13.20;;;6.90;;
18102;SDS011;9178;51.120;6.192;2023-03-01T07:50:19;10.53;;;7.30;;
18102;SDS011;9178;51.120;6.192;2023-03-01T07:52:46;12.17;;;7.60;;
18102;SDS011;9178;51.120;6.192;2023-03-01T07:55:13;8.70;;;6.77;;
18102;SDS011;9178;51.120;6.192;2023-03-01T07:57:41;9.10;;;6.70;;
18102;SDS011;9178;51.120;6.192;2023-03-01T08:00:09;11.70;;;8.30;;
18102;SDS011;9178;51.120;6.192;2023-03-01T08:02:37;10.17;;;7.20;;
18102;SDS011;9178;51.120;6.192;2023-03-01T08:05:05;10.77;;;7.27;;
18102;SDS011;9178;51.120;6.192;2023-03-01T08:07:34;8.07;;;6.67;;
18102;SDS011;9178;51.120;6.192;2023-03-01T08:10:01;8.27;;;6.60;;
18102;SDS011;9178;51.120;6.192;2023-03-01T08:12:28;7.63;;;6.37;;
18102;SDS011;9178;51.120;6.192;2023-03-01T08:14:55;9.67;;;7.00;;
18102;SDS011;9178;51.120;6.192;2023-03-01T08:17:21;9.53;;;6.97;;
18102;SDS011;9178;51.120;6.192;2023-03-01T08:19:48;7.43;;;6.50;;
18102;SDS011;9178;51.120;6.192;2023-03-01T08:22:15;8.87;;;6.93;;
18102;SDS011;9178;51.120;6.192;2023-03-01T08:24:43;8.97;;;7.07;;
18102;SDS011;9178;51.120;6.192;2023-03-01T08:27:10;11.17;;;7.67;;
18102;SDS011;9178;51.120;6.192;2023-03-01T08:29:38;10.00;;;7.47;;
18102;SDS011;9178;51.120;6.192;2023-03-01T08:32:05;10.07;;;7.30;;
18102;SDS011;9178;51.120;6.192;2023-03-01T08:34:31;11.17;;;7.60;;
18102;SDS011;9178;51.120;6.192;2023-03-01T08:37:00;10.50;;;7.77;;
18102;SDS011;9178;51.120;6.192;2023-03-01T08:39:27;9.23;;;7.37;;
18102;SDS011;9178;51.120;6.192;2023-03-01T08:41:56;10.77;;;7.90;;
18102;SDS011;9178;51.120;6.192;2023-03-01T08:44:23;10.57;;;8.20;;
18102;SDS011;9178;51.120;6.192;2023-03-01T08:46:50;12.30;;;8.77;;
18102;SDS011;9178;51.120;6.192;2023-03-01T08:49:18;9.43;;;8.17;;
18102;SDS011;9178;51.120;6.192;2023-03-01T08:51:46;10.67;;;7.87;;
18102;SDS011;9178;51.120;6.192;2023-03-01T08:54:14;9.50;;;7.73;;
18102;SDS011;9178;51.120;6.192;2023-03-01T08:56:43;9.63;;;7.90;;
18102;SDS011;9178;51.120;6.192;2023-03-01T08:59:11;10.17;;;7.70;;
18102;SDS011;9178;51.120;6.192;2023-03-01T09:01:40;9.90;;;7.67;;
18102;SDS011;9178;51.120;6.192;2023-03-01T09:04:08;11.00;;;7.70;;
18102;SDS011;9178;51.120;6.192;2023-03-01T09:06:35;11.80;;;7.97;;
18102;SDS011;9178;51.120;6.192;2023-03-01T09:09:03;8.90;;;7.50;;
18102;SDS011;9178;51.120;6.192;2023-03-01T09:11:31;9.37;;;7.20;;
18102;SDS011;9178;51.120;6.192;2023-03-01T09:13:58;13.70;;;8.37;;
18102;SDS011;9178;51.120;6.192;2023-03-01T09:16:26;9.23;;;7.73;;
18102;SDS011;9178;51.120;6.192;2023-03-01T09:18:54;12.63;;;8.53;;
18102;SDS011;9178;51.120;6.192;2023-03-01T09:21:22;11.00;;;8.33;;
18102;SDS011;9178;51.120;6.192;2023-03-01T09:23:49;10.57;;;7.83;;
18102;SDS011;9178;51.120;6.192;2023-03-01T09:26:16;10.30;;;8.50;;
18102;SDS011;9178;51.120;6.192;2023-03-01T09:28:46;13.57;;;8.77;;
18102;SDS011;9178;51.120;6.192;2023-03-01T09:31:14;12.37;;;8.57;;
18102;SDS011;9178;51.120;6.192;2023-03-01T09:33:44;12.13;;;8.63;;
18102;SDS011;9178;51.120;6.192;2023-03-01T09:36:14;12.50;;;8.50;;
18102;SDS011;9178;51.120;6.192;2023-03-01T09:38:42;11.67;;;8.37;;
18102;SDS011;9178;51.120;6.192;2023-03-01T09:41:10;13.40;;;8.20;;
18102;SDS011;9178;51.120;6.192;2023-03-01T09:43:45;9.33;;;8.03;;
18102;SDS011;9178;51.120;6.192;2023-03-01T09:46:19;11.90;;;8.10;;
18102;SDS011;9178;51.120;6.192;2023-03-01T09:48:50;11.20;;;8.67;;
18102;SDS011;9178;51.120;6.192;2023-03-01T09:51:22;10.13;;;7.70;;
18102;SDS011;9178;51.120;6.192;2023-03-01T09:53:52;13.73;;;8.40;;
18102;SDS011;9178;51.120;6.192;2023-03-01T09:56:22;10.90;;;8.23;;
18102;SDS011;9178;51.120;6.192;2023-03-01T09:58:57;12.57;;;8.37;;
18102;SDS011;9178;51.120;6.192;2023-03-01T10:01:33;11.07;;;8.20;;
18102;SDS011;9178;51.120;6.192;2023-03-01T10:04:09;11.03;;;8.10;;
18102;SDS011;9178;51.120;6.192;2023-03-01T10:06:48;11.67;;;7.83;;
18102;SDS011;9178;51.120;6.192;2023-03-01T10:09:21;12.60;;;8.77;;
18102;SDS011;9178;51.120;6.192;2023-03-01T10:11:48;12.47;;;8.10;;
18102;SDS011;9178;51.120;6.192;2023-03-01T10:14:22;9.97;;;8.30;;
18102;SDS011;9178;51.120;6.192;2023-03-01T10:16:56;11.53;;;8.33;;
18102;SDS011;9178;51.120;6.192;2023-03-01T10:19:30;10.97;;;8.27;;
18102;SDS011;9178;51.120;6.192;2023-03-01T10:22:01;10.50;;;8.57;;
18102;SDS011;9178;51.120;6.192;2023-03-01T10:24:34;10.60;;;8.20;;
18102;SDS011;9178;51.120;6.192;2023-03-01T10:27:04;12.43;;;8.87;;
18102;SDS011;9178;51.120;6.192;2023-03-01T10:29:37;14.30;;;8.37;;
18102;SDS011;9178;51.120;6.192;2023-03-01T10:32:10;12.07;;;9.00;;
18102;SDS011;9178;51.120;6.192;2023-03-01T10:34:38;12.67;;;8.93;;
18102;SDS011;9178;51.120;6.192;2023-03-01T10:37:10;12.93;;;9.07;;
18102;SDS011;9178;51.120;6.192;2023-03-01T10:39:53;11.03;;;8.80;;
18102;SDS011;9178;51.120;6.192;2023-03-01T10:42:25;10.60;;;8.50;;
18102;SDS011;9178;51.120;6.192;2023-03-01T10:44:53;11.10;;;8.70;;
18102;SDS011;9178;51.120;6.192;2023-03-01T10:47:21;13.33;;;8.50;;
18102;SDS011;9178;51.120;6.192;2023-03-01T10:50:02;11.50;;;8.70;;
18102;SDS011;9178;51.120;6.192;2023-03-01T10:52:32;10.53;;;7.90;;
18102;SDS011;9178;51.120;6.192;2023-03-01T10:55:02;10.37;;;8.27;;
18102;SDS011;9178;51.120;6.192;2023-03-01T10:57:49;10.47;;;8.43;;
18102;SDS011;9178;51.120;6.192;2023-03-01T11:00:18;10.03;;;7.87;;
18102;SDS011;9178;51.120;6.192;2023-03-01T11:02:48;11.23;;;8.30;;
18102;SDS011;9178;51.120;6.192;2023-03-01T11:05:18;12.40;;;8.70;;
18102;SDS011;9178;51.120;6.192;2023-03-01T11:07:49;10.53;;;8.07;;
18102;SDS011;9178;51.120;6.192;2023-03-01T11:10:18;10.90;;;7.73;;
18102;SDS011;9178;51.120;6.192;2023-03-01T11:12:47;9.60;;;8.10;;
18102;SDS011;9178;51.120;6.192;2023-03-01T11:15:21;10.63;;;7.53;;
18102;SDS011;9178;51.120;6.192;2023-03-01T11:17:51;9.20;;;7.77;;
18102;SDS011;9178;51.120;6.192;2023-03-01T11:20:25;10.60;;;8.30;;
18102;SDS011;9178;51.120;6.192;2023-03-01T11:22:56;8.70;;;7.80;;
18102;SDS011;9178;51.120;6.192;2023-03-01T11:25:27;10.07;;;8.13;;
18102;SDS011;9178;51.120;6.192;2023-03-01T11:27:59;11.03;;;7.70;;
18102;SDS011;9178;51.120;6.192;2023-03-01T11:30:30;11.80;;;9.00;;
18102;SDS011;9178;51.120;6.192;2023-03-01T11:33:13;9.57;;;7.80;;
18102;SDS011;9178;51.120;6.192;2023-03-01T11:35:49;10.93;;;8.50;;
18102;SDS011;9178;51.120;6.192;2023-03-01T11:38:22;11.90;;;8.70;;
18102;SDS011;9178;51.120;6.192;2023-03-01T11:40:52;11.60;;;8.50;;
18102;SDS011;9178;51.120;6.192;2023-03-01T11:43:27;10.83;;;8.17;;
18102;SDS011;9178;51.120;6.192;2023-03-01T11:49:02;9.80;;;8.00;;
18102;SDS011;9178;51.120;6.192;2023-03-01T11:51:44;9.20;;;8.10;;
18102;SDS011;9178;51.120;6.192;2023-03-01T11:54:21;11.13;;;7.40;;
18102;SDS011;9178;51.120;6.192;2023-03-01T11:56:57;9.93;;;7.23;;
18102;SDS011;9178;51.120;6.192;2023-03-01T11:59:44;9.03;;;7.33;;
18102;SDS011;9178;51.120;6.192;2023-03-01T12:02:36;10.27;;;7.33;;
18102;SDS011;9178;51.120;6.192;2023-03-01T12:05:28;8.57;;;7.20;;
18102;SDS011;9178;51.120;6.192;2023-03-01T12:08:17;7.88;;;6.28;;
18102;SDS011;9178;51.120;6.192;2023-03-01T12:10:52;8.53;;;6.70;;
18102;SDS011;9178;51.120;6.192;2023-03-01T12:13:33;8.33;;;6.77;;
18102;SDS011;9178;51.120;6.192;2023-03-01T12:16:15;10.20;;;7.25;;
18102;SDS011;9178;51.120;6.192;2023-03-01T12:18:58;8.85;;;6.55;;
18102;SDS011;9178;51.120;6.192;2023-03-01T12:21:38;8.57;;;7.20;;
18102;SDS011;9178;51.120;6.192;2023-03-01T12:24:37;8.60;;;6.93;;
18102;SDS011;9178;51.120;6.192;2023-03-01T12:27:23;10.02;;;7.40;;
18102;SDS011;9178;51.120;6.192;2023-03-01T12:30:10;10.20;;;7.13;;
18102;SDS011;9178;51.120;6.192;2023-03-01T12:32:53;9.57;;;7.55;;
18102;SDS011;9178;51.120;6.192;2023-03-01T12:35:33;9.38;;;7.70;;
18102;SDS011;9178;51.120;6.192;2023-03-01T12:38:14;10.27;;;8.17;;
18102;SDS011;9178;51.120;6.192;2023-03-01T12:41:03;10.27;;;7.50;;
18102;SDS011;9178;51.120;6.192;2023-03-01T12:43:43;10.20;;;7.60;;
18102;SDS011;9178;51.120;6.192;2023-03-01T12:46:25;11.47;;;7.40;;
18102;SDS011;9178;51.120;6.192;2023-03-01T12:49:08;8.40;;;7.17;;
18102;SDS011;9178;51.120;6.192;2023-03-01T12:51:39;9.60;;;7.17;;
18102;SDS011;9178;51.120;6.192;2023-03-01T12:54:12;8.53;;;7.13;;
18102;SDS011;9178;51.120;6.192;2023-03-01T12:56:43;10.23;;;7.27;;
18102;SDS011;9178;51.120;6.192;2023-03-01T12:59:18;8.67;;;6.83;;
18102;SDS011;9178;51.120;6.192;2023-03-01T13:01:52;8.23;;;6.80;;
18102;SDS011;9178;51.120;6.192;2023-03-01T13:04:31;10.90;;;6.80;;
18102;SDS011;9178;51.120;6.192;2023-03-01T13:07:11;6.80;;;6.03;;
18102;SDS011;9178;51.120;6.192;2023-03-01T13:09:48;11.97;;;6.00;;
18102;SDS011;9178;51.120;6.192;2023-03-01T13:15:26;8.13;;;5.70;;
18102;SDS011;9178;51.120;6.192;2023-03-01T13:17:55;6.77;;;5.73;;
18102;SDS011;9178;51.120;6.192;2023-03-01T13:20:24;6.90;;;5.97;;
18102;SDS011;9178;51.120;6.192;2023-03-01T13:23:01;8.73;;;6.20;;
18102;SDS011;9178;51.120;6.192;2023-03-01T13:25:31;6.43;;;5.43;;
18102;SDS011;9178;51.120;6.192;2023-03-01T13:34:47;7.57;;;6.03;;
18102;SDS011;9178;51.120;6.192;2023-03-01T13:37:29;9.00;;;6.50;;
18102;SDS011;9178;51.120;6.192;2023-03-01T13:43:25;7.10;;;5.50;;
18102;SDS011;9178;51.120;6.192;2023-03-01T13:45:57;7.20;;;5.80;;
18102;SDS011;9178;51.120;6.192;2023-03-01T13:48:26;8.20;;;6.10;;
18102;SDS011;9178;51.120;6.192;2023-03-01T13:50:55;9.13;;;5.40;;
18102;SDS011;9178;51.120;6.192;2023-03-01T13:53:27;6.13;;;5.03;;
18102;SDS011;9178;51.120;6.192;2023-03-01T13:55:58;7.90;;;5.60;;
18102;SDS011;9178;51.120;6.192;2023-03-01T13:58:28;7.72;;;5.22;;
18102;SDS011;9178;51.120;6.192;2023-03-01T14:00:59;8.73;;;5.43;;
18102;SDS011;9178;51.120;6.192;2023-03-01T14:03:27;7.13;;;4.70;;
18102;SDS011;9178;51.120;6.192;2023-03-01T14:05:59;7.80;;;4.75;;
18102;SDS011;9178;51.120;6.192;2023-03-01T14:08:29;5.97;;;4.72;;
18102;SDS011;9178;51.120;6.192;2023-03-01T14:13:54;7.60;;;4.07;;
18102;SDS011;9178;51.120;6.192;2023-03-01T14:16:39;7.15;;;4.95;;
18102;SDS011;9178;51.120;6.192;2023-03-01T14:19:15;5.03;;;4.25;;
18102;SDS011;9178;51.120;6.192;2023-03-01T14:21:45;8.20;;;5.13;;
18102;SDS011;9178;51.120;6.192;2023-03-01T14:24:17;5.18;;;4.40;;
18102;SDS011;9178;51.120;6.192;2023-03-01T14:26:46;6.80;;;4.88;;
18102;SDS011;9178;51.120;6.192;2023-03-01T14:29:26;6.43;;;4.50;;
18102;SDS011;9178;51.120;6.192;2023-03-01T14:31:55;5.43;;;4.68;;
18102;SDS011;9178;51.120;6.192;2023-03-01T14:34:34;7.05;;;4.70;;
18102;SDS011;9178;51.120;6.192;2023-03-01T14:37:09;5.85;;;4.70;;
18102;SDS011;9178;51.120;6.192;2023-03-01T14:39:36;7.15;;;5.10;;
18102;SDS011;9178;51.120;6.192;2023-03-01T14:42:04;7.50;;;4.82;;
18102;SDS011;9178;51.120;6.192;2023-03-01T14:44:31;8.30;;;5.03;;
18102;SDS011;9178;51.120;6.192;2023-03-01T14:47:03;6.80;;;4.90;;
18102;SDS011;9178;51.120;6.192;2023-03-01T14:49:31;7.32;;;5.30;;
18102;SDS011;9178;51.120;6.192;2023-03-01T14:51:59;7.07;;;4.80;;
18102;SDS011;9178;51.120;6.192;2023-03-01T14:54:29;5.27;;;4.60;;
18102;SDS011;9178;51.120;6.192;2023-03-01T14:57:03;5.73;;;4.70;;
18102;SDS011;9178;51.120;6.192;2023-03-01T14:59:30;8.13;;;4.77;;
18102;SDS011;9178;51.120;6.192;2023-03-01T15:01:59;6.77;;;4.50;;
18102;SDS011;9178;51.120;6.192;2023-03-01T15:04:28;7.47;;;5.03;;
18102;SDS011;9178;51.120;6.192;2023-03-01T15:06:57;7.10;;;5.40;;
18102;SDS011;9178;51.120;6.192;2023-03-01T15:09:30;6.27;;;4.90;;
18102;SDS011;9178;51.120;6.192;2023-03-01T15:12:00;7.60;;;5.23;;
18102;SDS011;9178;51.120;6.192;2023-03-01T15:14:39;10.50;;;5.83;;
18102;SDS011;9178;51.120;6.192;2023-03-01T15:17:16;7.23;;;5.43;;
18102;SDS011;9178;51.120;6.192;2023-03-01T15:19:51;7.23;;;4.83;;
18102;SDS011;9178;51.120;6.192;2023-03-01T15:22:18;9.10;;;5.63;;
18102;SDS011;9178;51.120;6.192;2023-03-01T15:24:47;7.53;;;4.90;;
18102;SDS011;9178;51.120;6.192;2023-03-01T15:27:16;7.87;;;5.03;;
18102;SDS011;9178;51.120;6.192;2023-03-01T15:29:48;8.57;;;5.37;;
18102;SDS011;9178;51.120;6.192;2023-03-01T15:32:24;8.53;;;5.67;;